Time,TemperatureF,DewpointF,PressureIn,WindDirection,WindDirectionDegrees,WindSpeedMPH,WindSpeedGustMPH,Humidity,HourlyPrecipIn,Conditions,Clouds,dailyrainin,SolarRadiationWatts/m^2,SoftwareType,DateUTC
2013-03-11 00:03:00,46.0,32.0,-100.00,NNW,347,9.0,16.0,57,0.00,,,0.77,0.000000,,2013-03-11 05:03:00,
2013-03-11 01:10:00,42.0,34.0,-100.00,WNW,287,3.0,5.0,72,-99.99,,,0.77,0.000000,,2013-03-11 06:10:00,
2013-03-11 01:33:00,42.0,34.0,-100.00,WNW,287,3.0,5.0,72,-99.99,,,0.77,0.000000,,2013-03-11 06:33:00,
2013-03-11 01:42:00,42.0,34.0,-100.00,WNW,287,3.0,5.0,72,-99.99,,,0.77,0.000000,,2013-03-11 06:42:00,
2013-03-11 01:53:00,42.0,34.0,-100.00,WNW,287,3.0,5.0,72,-99.99,,,0.77,0.000000,,2013-03-11 06:53:00,
2013-03-11 02:02:00,42.0,34.0,-100.00,WNW,287,3.0,5.0,72,-99.99,,,0.77,0.000000,,2013-03-11 07:02:00,
2013-03-11 02:10:00,42.0,34.0,-100.00,West,278,3.0,5.0,72,0.00,,,0.74,0.000000,,2013-03-11 07:10:00,
2013-03-11 02:33:00,42.0,34.0,-100.00,West,278,3.0,5.0,72,0.00,,,0.74,0.000000,,2013-03-11 07:33:00,
2013-03-11 02:42:00,42.0,34.0,-100.00,West,278,3.0,5.0,72,0.00,,,0.74,0.000000,,2013-03-11 07:42:00,
2013-03-11 02:52:00,42.0,34.0,-100.00,West,278,3.0,5.0,72,0.00,,,0.74,0.000000,,2013-03-11 07:52:00,
2013-03-11 03:02:00,42.0,34.0,-100.00,West,278,3.0,5.0,72,0.00,,,0.74,0.000000,,2013-03-11 08:02:00,
2013-03-11 03:10:00,41.0,33.0,-100.00,WNW,291,4.0,5.0,73,0.00,,,0.70,0.000000,,2013-03-11 08:10:00,
2013-03-11 03:42:00,41.0,33.0,-100.00,WNW,291,4.0,5.0,73,0.00,,,0.70,0.000000,,2013-03-11 08:42:00,
2013-03-11 03:52:00,41.0,33.0,-100.00,WNW,291,4.0,5.0,73,0.00,,,0.70,0.000000,,2013-03-11 08:52:00,
2013-03-11 04:02:00,41.0,33.0,-100.00,WNW,291,4.0,5.0,73,0.00,,,0.70,0.000000,,2013-03-11 09:02:00,
2013-03-11 04:10:00,41.0,31.0,-100.00,NW,311,5.0,8.0,68,0.00,,,0.18,0.000000,,2013-03-11 09:10:00,
2013-03-11 04:32:00,41.0,31.0,-100.00,NW,311,5.0,8.0,68,0.00,,,0.18,0.000000,,2013-03-11 09:32:00,
2013-03-11 04:42:00,41.0,31.0,-100.00,NW,311,5.0,8.0,68,0.00,,,0.18,0.000000,,2013-03-11 09:42:00,
2013-03-11 04:52:00,41.0,31.0,-100.00,NW,311,5.0,8.0,68,0.00,,,0.18,0.000000,,2013-03-11 09:52:00,
2013-03-11 05:02:00,41.0,31.0,-100.00,NW,311,5.0,8.0,68,0.00,,,0.18,0.000000,,2013-03-11 10:02:00,
2013-03-11 05:10:00,42.0,31.0,-100.00,NW,307,6.0,11.0,66,0.00,,,0.03,0.000000,,2013-03-11 10:10:00,
2013-03-11 05:33:00,42.0,31.0,-100.00,NW,307,6.0,11.0,66,0.00,,,0.03,0.000000,,2013-03-11 10:33:00,
2013-03-11 05:42:00,42.0,31.0,-100.00,NW,307,6.0,11.0,66,0.00,,,0.03,0.000000,,2013-03-11 10:42:00,
2013-03-11 05:52:00,42.0,31.0,-100.00,NW,307,6.0,11.0,66,0.00,,,0.03,0.000000,,2013-03-11 10:52:00,
2013-03-11 06:02:00,42.0,31.0,-100.00,NW,307,6.0,11.0,66,0.00,,,0.03,0.000000,,2013-03-11 11:02:00,
2013-03-11 06:10:00,41.0,31.0,-100.00,West,274,10.0,16.0,68,0.00,,,-99.99,0.000000,,2013-03-11 11:10:00,
2013-03-11 06:33:00,41.0,31.0,-100.00,West,274,10.0,16.0,68,0.00,,,-99.99,0.000000,,2013-03-11 11:33:00,
2013-03-11 06:43:00,41.0,31.0,-100.00,West,274,10.0,16.0,68,0.00,,,-99.99,0.000000,,2013-03-11 11:43:00,
2013-03-11 06:53:00,41.0,31.0,-100.00,West,274,10.0,16.0,68,0.00,,,-99.99,0.000000,,2013-03-11 11:53:00,
2013-03-11 07:02:00,41.0,31.0,-100.00,West,274,10.0,16.0,68,0.00,,,-99.99,0.000000,,2013-03-11 12:02:00,
2013-03-11 07:10:00,38.0,30.0,-100.00,West,277,5.0,12.0,74,0.00,,,-99.99,0.000000,,2013-03-11 12:10:00,
2013-03-11 07:33:00,38.0,30.0,-100.00,West,277,5.0,12.0,74,0.00,,,-99.99,0.000000,,2013-03-11 12:33:00,
2013-03-11 07:43:00,38.0,30.0,-100.00,West,277,5.0,12.0,74,0.00,,,-99.99,0.000000,,2013-03-11 12:43:00,
2013-03-11 07:53:00,38.0,30.0,-100.00,West,277,5.0,12.0,74,0.00,,,-99.99,0.000000,,2013-03-11 12:53:00,
2013-03-11 08:02:00,38.0,30.0,-100.00,West,277,5.0,12.0,74,0.00,,,-99.99,0.000000,,2013-03-11 13:02:00,
2013-03-11 08:10:00,38.0,30.0,-100.00,WNW,287,4.0,8.0,74,0.00,,,0.00,18.000000,,2013-03-11 13:10:00,
2013-03-11 08:33:00,38.0,30.0,-100.00,WNW,287,4.0,8.0,74,0.00,,,0.00,18.000000,,2013-03-11 13:33:00,
2013-03-11 08:43:00,38.0,30.0,-100.00,WNW,287,4.0,8.0,74,0.00,,,0.00,18.000000,,2013-03-11 13:43:00,
2013-03-11 08:53:00,38.0,30.0,-100.00,WNW,287,4.0,8.0,74,0.00,,,0.00,18.000000,,2013-03-11 13:53:00,
2013-03-11 09:02:00,38.0,30.0,-100.00,WNW,287,4.0,8.0,74,0.00,,,0.00,18.000000,,2013-03-11 14:02:00,
2013-03-11 09:10:00,42.0,31.0,-100.00,WNW,298,7.0,10.0,66,0.00,,,0.00,217.000000,,2013-03-11 14:10:00,
2013-03-11 09:43:00,42.0,31.0,-100.00,WNW,298,7.0,10.0,66,0.00,,,0.00,217.000000,,2013-03-11 14:43:00,
2013-03-11 09:53:00,42.0,31.0,-100.00,WNW,298,7.0,10.0,66,0.00,,,0.00,217.000000,,2013-03-11 14:53:00,
2013-03-11 10:02:00,42.0,31.0,-100.00,WNW,298,7.0,10.0,66,0.00,,,0.00,217.000000,,2013-03-11 15:02:00,
2013-03-11 10:10:00,46.0,31.0,-100.00,NW,307,8.0,13.0,56,0.00,,,0.00,468.000000,,2013-03-11 15:10:00,
2013-03-11 10:33:00,46.0,31.0,-100.00,NW,307,8.0,13.0,56,0.00,,,0.00,468.000000,,2013-03-11 15:33:00,
2013-03-11 10:43:00,46.0,31.0,-100.00,NW,307,8.0,13.0,56,0.00,,,0.00,468.000000,,2013-03-11 15:43:00,
2013-03-11 10:53:00,46.0,31.0,-100.00,NW,307,8.0,13.0,56,0.00,,,0.00,468.000000,,2013-03-11 15:53:00,
2013-03-11 11:02:00,46.0,31.0,-100.00,NW,307,8.0,13.0,56,0.00,,,0.00,468.000000,,2013-03-11 16:02:00,
2013-03-11 11:10:00,48.0,28.0,-100.00,WNW,294,11.0,17.0,46,0.00,,,0.00,701.000000,,2013-03-11 16:10:00,
2013-03-11 11:32:00,48.0,28.0,-100.00,WNW,294,11.0,17.0,46,0.00,,,0.00,701.000000,,2013-03-11 16:32:00,
2013-03-11 11:43:00,48.0,28.0,-100.00,WNW,294,11.0,17.0,46,0.00,,,0.00,701.000000,,2013-03-11 16:43:00,
2013-03-11 11:52:00,48.0,28.0,-100.00,WNW,294,11.0,17.0,46,0.00,,,0.00,701.000000,,2013-03-11 16:52:00,
2013-03-11 12:02:00,48.0,28.0,-100.00,WNW,294,11.0,17.0,46,0.00,,,0.00,701.000000,,2013-03-11 17:02:00,
2013-03-11 12:10:00,51.0,24.0,-100.00,WNW,297,12.0,20.0,34,0.00,,,-99.99,882.000000,,2013-03-11 17:10:00,
2013-03-11 12:42:00,51.0,24.0,-100.00,WNW,297,12.0,20.0,34,0.00,,,-99.99,882.000000,,2013-03-11 17:42:00,
2013-03-11 12:53:00,51.0,24.0,-100.00,WNW,297,12.0,20.0,34,0.00,,,-99.99,882.000000,,2013-03-11 17:53:00,
2013-03-11 13:02:00,51.0,24.0,-100.00,WNW,297,12.0,20.0,34,0.00,,,-99.99,882.000000,,2013-03-11 18:02:00,
2013-03-11 13:10:00,53.0,20.0,-100.00,NW,311,12.0,23.0,27,0.00,,,0.00,998.000000,,2013-03-11 18:10:00,
2013-03-11 13:33:00,53.0,20.0,-100.00,NW,311,12.0,23.0,27,0.00,,,0.00,998.000000,,2013-03-11 18:33:00,
2013-03-11 13:43:00,53.0,20.0,-100.00,NW,311,12.0,23.0,27,0.00,,,0.00,998.000000,,2013-03-11 18:43:00,
2013-03-11 13:53:00,53.0,20.0,-100.00,NW,311,12.0,23.0,27,0.00,,,0.00,998.000000,,2013-03-11 18:53:00,
2013-03-11 14:02:00,53.0,20.0,-100.00,NW,311,12.0,23.0,27,0.00,,,0.00,998.000000,,2013-03-11 19:02:00,
2013-03-11 14:10:00,54.0,22.0,-100.00,NW,323,13.0,21.0,29,0.00,,,0.00,1024.000000,,2013-03-11 19:10:00,
2013-03-11 14:43:00,54.0,22.0,-100.00,NW,323,13.0,21.0,29,0.00,,,0.00,1024.000000,,2013-03-11 19:43:00,
2013-03-11 14:53:00,54.0,22.0,-100.00,NW,323,13.0,21.0,29,0.00,,,0.00,1024.000000,,2013-03-11 19:53:00,
2013-03-11 15:02:00,54.0,22.0,-100.00,NW,323,13.0,21.0,29,0.00,,,0.00,1024.000000,,2013-03-11 20:02:00,
2013-03-11 15:10:00,55.0,19.0,-100.00,NNW,331,13.0,22.0,24,0.00,,,0.00,974.000000,,2013-03-11 20:10:00,
2013-03-11 15:33:00,55.0,19.0,-100.00,NNW,331,13.0,22.0,24,0.00,,,0.00,974.000000,,2013-03-11 20:33:00,
2013-03-11 15:44:00,55.0,19.0,-100.00,NNW,331,13.0,22.0,24,0.00,,,0.00,974.000000,,2013-03-11 20:44:00,
2013-03-11 15:53:00,55.0,19.0,-100.00,NNW,331,13.0,22.0,24,0.00,,,0.00,974.000000,,2013-03-11 20:53:00,
2013-03-11 16:03:00,55.0,19.0,-100.00,NNW,331,13.0,22.0,24,0.00,,,0.00,974.000000,,2013-03-11 21:03:00,
2013-03-11 16:10:00,58.0,20.0,-100.00,NNW,328,9.0,19.0,23,0.00,,,0.00,844.000000,,2013-03-11 21:10:00,
2013-03-11 16:33:00,58.0,20.0,-100.00,NNW,328,9.0,19.0,23,0.00,,,0.00,844.000000,,2013-03-11 21:33:00,
2013-03-11 16:44:00,58.0,20.0,-100.00,NNW,328,9.0,19.0,23,0.00,,,0.00,844.000000,,2013-03-11 21:44:00,
2013-03-11 16:53:00,58.0,20.0,-100.00,NNW,328,9.0,19.0,23,0.00,,,0.00,844.000000,,2013-03-11 21:53:00,
2013-03-11 17:02:00,58.0,20.0,-100.00,NNW,328,9.0,19.0,23,0.00,,,0.00,844.000000,,2013-03-11 22:02:00,
2013-03-11 17:10:00,59.0,19.0,-100.00,NW,321,9.0,21.0,21,0.00,,,0.00,651.000000,,2013-03-11 22:10:00,
2013-03-11 17:33:00,59.0,19.0,-100.00,NW,321,9.0,21.0,21,0.00,,,0.00,651.000000,,2013-03-11 22:33:00,
2013-03-11 17:43:00,59.0,19.0,-100.00,NW,321,9.0,21.0,21,0.00,,,0.00,651.000000,,2013-03-11 22:43:00,
2013-03-11 17:53:00,59.0,19.0,-100.00,NW,321,9.0,21.0,21,0.00,,,0.00,651.000000,,2013-03-11 22:53:00,
2013-03-11 18:03:00,59.0,19.0,-100.00,NW,321,9.0,21.0,21,0.00,,,0.00,651.000000,,2013-03-11 23:03:00,
2013-03-11 18:10:00,59.0,18.0,-100.00,NNW,329,8.0,16.0,20,0.00,,,-99.99,413.000000,,2013-03-11 23:10:00,
2013-03-11 18:33:00,59.0,18.0,-100.00,NNW,329,8.0,16.0,20,0.00,,,-99.99,413.000000,,2013-03-11 23:33:00,
2013-03-11 18:43:00,59.0,18.0,-100.00,NNW,329,8.0,16.0,20,0.00,,,-99.99,413.000000,,2013-03-11 23:43:00,
2013-03-11 18:53:00,59.0,18.0,-100.00,NNW,329,8.0,16.0,20,0.00,,,-99.99,413.000000,,2013-03-11 23:53:00,
2013-03-11 19:02:00,59.0,18.0,-100.00,NNW,329,8.0,16.0,20,0.00,,,-99.99,413.000000,,2013-03-12 00:02:00,
2013-03-11 19:10:00,57.0,17.0,-100.00,NW,326,4.0,12.0,21,0.00,,,0.00,164.000000,,2013-03-12 00:10:00,
2013-03-11 19:33:00,57.0,17.0,-100.00,NW,326,4.0,12.0,21,0.00,,,0.00,164.000000,,2013-03-12 00:33:00,
2013-03-11 19:43:00,57.0,17.0,-100.00,NW,326,4.0,12.0,21,0.00,,,0.00,164.000000,,2013-03-12 00:43:00,
2013-03-11 19:53:00,57.0,17.0,-100.00,NW,326,4.0,12.0,21,0.00,,,0.00,164.000000,,2013-03-12 00:53:00,
2013-03-11 20:02:00,57.0,17.0,-100.00,NW,326,4.0,12.0,21,0.00,,,0.00,164.000000,,2013-03-12 01:02:00,
2013-03-11 20:10:00,51.0,17.0,-100.00,NNE,20,1.0,6.0,26,0.00,,,0.00,8.000000,,2013-03-12 01:10:00,
2013-03-11 20:33:00,51.0,17.0,-100.00,NNE,20,1.0,6.0,26,0.00,,,0.00,8.000000,,2013-03-12 01:33:00,
2013-03-11 20:42:00,51.0,17.0,-100.00,NNE,20,1.0,6.0,26,0.00,,,0.00,8.000000,,2013-03-12 01:42:00,
2013-03-11 20:52:00,51.0,17.0,-100.00,NNE,20,1.0,6.0,26,0.00,,,0.00,8.000000,,2013-03-12 01:52:00,
2013-03-11 21:02:00,51.0,17.0,-100.00,NNE,20,1.0,6.0,26,0.00,,,0.00,8.000000,,2013-03-12 02:02:00,
2013-03-11 21:10:00,47.0,21.0,-100.00,East,84,2.0,4.0,35,0.00,,,0.00,0.000000,,2013-03-12 02:10:00,
2013-03-11 21:32:00,47.0,21.0,-100.00,East,84,2.0,4.0,35,0.00,,,0.00,0.000000,,2013-03-12 02:32:00,
2013-03-11 21:43:00,47.0,21.0,-100.00,East,84,2.0,4.0,35,0.00,,,0.00,0.000000,,2013-03-12 02:43:00,
2013-03-11 21:52:00,47.0,21.0,-100.00,East,84,2.0,4.0,35,0.00,,,0.00,0.000000,,2013-03-12 02:52:00,
2013-03-11 22:02:00,47.0,21.0,-100.00,East,84,2.0,4.0,35,0.00,,,0.00,0.000000,,2013-03-12 03:02:00,
2013-03-11 22:10:00,45.0,22.0,-100.00,SSE,147,2.0,3.0,40,0.00,,,0.00,0.000000,,2013-03-12 03:10:00,
2013-03-11 22:43:00,45.0,22.0,-100.00,SSE,147,2.0,3.0,40,0.00,,,0.00,0.000000,,2013-03-12 03:43:00,
2013-03-11 22:53:00,45.0,22.0,-100.00,SSE,147,2.0,3.0,40,0.00,,,0.00,0.000000,,2013-03-12 03:53:00,
2013-03-11 23:02:00,45.0,22.0,-100.00,SSE,147,2.0,3.0,40,0.00,,,0.00,0.000000,,2013-03-12 04:02:00,
2013-03-11 23:10:00,43.0,26.0,-100.00,SE,130,2.0,4.0,50,0.00,,,0.00,0.000000,,2013-03-12 04:10:00,
2013-03-11 23:32:00,43.0,26.0,-100.00,SE,130,2.0,4.0,50,0.00,,,0.00,0.000000,,2013-03-12 04:32:00,
2013-03-11 23:43:00,43.0,26.0,-100.00,SE,130,2.0,4.0,50,0.00,,,0.00,0.000000,,2013-03-12 04:43:00,
2013-03-11 23:52:00,43.0,26.0,-100.00,SE,130,2.0,4.0,50,0.00,,,0.00,0.000000,,2013-03-12 04:52:00,